Time;durP1;ratioP1;P1;durP2;ratioP2;P2;SDS_P1;SDS_P2;PMS_P1;PMS_P2;Temp;Humidity;BMP_temperature;BMP_pressure;BME280_temperature;BME280_humidity;BME280_pressure;Samples;Min_cycle;Max_cycle;Signal;HPM_P1;HPM_P2
2022/01/03 00:02:03;;;;;;;6.63;3.15;;;;;;;15.63;51.24;100334.06;5975117;23;96826;-77
2022/01/03 00:04:29;;;;;;;8.30;4.43;;;;;;;15.50;51.25;100325.97;5974981;23;97118;-77
2022/01/03 00:06:57;;;;;;;6.97;2.55;;;;;;;15.59;51.27;100318.38;5975331;23;99202;-76
2022/01/03 00:09:24;;;;;;;6.28;2.92;;;;;;;15.61;51.30;100319.16;5974770;23;98991;-76
2022/01/03 00:11:51;;;;;;;8.23;3.58;;;;;;;15.56;51.21;100307.94;5975674;23;97133;-78
2022/01/03 00:14:18;;;;;;;4.43;2.63;;;;;;;15.50;51.63;100323.31;5974954;23;96745;-78
2022/01/03 00:16:44;;;;;;;8.57;2.95;;;;;;;15.50;51.30;100312.66;5975500;23;98906;-77
2022/01/03 00:19:12;;;;;;;8.95;3.13;;;;;;;15.64;51.12;100311.81;5976716;23;99162;-77
2022/01/03 00:21:44;;;;;;;4.97;2.70;;;;;;;15.50;51.67;100296.66;5980643;23;96661;-76
2022/01/03 00:24:13;;;;;;;9.20;3.75;;;;;;;15.63;50.86;100291.47;5975482;23;96888;-77
2022/01/03 00:26:41;;;;;;;8.43;2.83;;;;;;;15.68;51.21;100305.38;5974793;23;99021;-78
2022/01/03 00:29:10;;;;;;;8.25;2.90;;;;;;;15.64;51.07;100297.66;5975031;23;99569;-77
2022/01/03 00:31:39;;;;;;;10.35;2.80;;;;;;;15.52;51.76;100289.50;5974238;23;97190;-77
2022/01/03 00:34:07;;;;;;;7.07;2.60;;;;;;;15.51;52.38;100297.53;5975431;23;96711;-76
2022/01/03 00:36:36;;;;;;;5.63;2.53;;;;;;;15.36;53.72;100288.69;5974348;23;99039;-77
2022/01/03 00:39:04;;;;;;;6.95;2.90;;;;;;;15.63;53.56;100287.94;5975401;23;99243;-77
2022/01/03 00:41:31;;;;;;;6.93;2.40;;;;;;;15.42;54.17;100276.81;5975513;23;96684;-77
2022/01/03 00:43:59;;;;;;;6.45;2.47;;;;;;;15.50;53.52;100277.19;5974591;23;97298;-76
2022/01/03 00:46:27;;;;;;;5.72;2.78;;;;;;;15.52;53.63;100273.50;5974668;23;98831;-76
2022/01/03 00:48:55;;;;;;;5.18;2.47;;;;;;;15.53;53.85;100274.38;5976068;23;99154;-77
2022/01/03 00:51:21;;;;;;;6.47;2.72;;;;;;;15.17;54.43;100277.47;5974613;23;97163;-77
2022/01/03 00:53:51;;;;;;;8.88;2.60;;;;;;;15.38;54.72;100284.13;5977002;23;96742;-76
2022/01/03 00:56:24;;;;;;;6.75;3.22;;;;;;;15.33;54.10;100269.41;5974431;23;99455;-77
2022/01/03 00:58:54;;;;;;;8.07;2.58;;;;;;;15.42;54.19;100277.69;5974660;23;98807;-76
2022/01/03 01:01:23;;;;;;;4.97;2.28;;;;;;;15.31;54.34;100282.81;5975417;23;96685;-76
2022/01/03 01:03:54;;;;;;;4.15;2.38;;;;;;;15.26;54.46;100279.56;5975439;23;98890;-77
2022/01/03 01:06:21;;;;;;;8.27;2.53;;;;;;;15.22;54.64;100270.09;5974546;23;99059;-77
2022/01/03 01:08:56;;;;;;;6.28;2.55;;;;;;;15.04;55.78;100265.88;5977326;23;98804;-76
2022/01/03 01:11:26;;;;;;;4.15;1.95;;;;;;;15.05;56.15;100259.59;5977709;23;96730;-76
2022/01/03 01:13:53;;;;;;;6.28;2.40;;;;;;;14.70;57.32;100270.56;5976744;23;96787;-77
2022/01/03 01:16:20;;;;;;;6.03;2.22;;;;;;;14.88;57.22;100259.78;5976377;23;98870;-77
2022/01/03 01:18:46;;;;;;;4.45;2.22;;;;;;;14.96;57.24;100268.16;5975352;23;98928;-75
2022/01/03 01:21:14;;;;;;;7.05;2.40;;;;;;;14.85;57.45;100260.81;5974882;23;96924;-76
2022/01/03 01:23:43;;;;;;;4.85;2.40;;;;;;;15.11;56.69;100252.09;5976787;23;97090;-76
2022/01/03 01:28:54;;;;;;;4.57;2.13;;;;;;;15.09;57.19;100245.19;5976453;23;96998;-76
2022/01/03 01:31:23;;;;;;;7.47;2.20;;;;;;;14.93;57.66;100231.09;5975164;23;97183;-76
2022/01/03 01:33:52;;;;;;;4.70;2.13;;;;;;;15.01;57.35;100223.50;5973318;23;97178;-76
2022/01/03 01:36:23;;;;;;;5.63;1.85;;;;;;;14.86;57.47;100224.44;5974228;23;99555;-76
2022/01/03 01:38:51;;;;;;;2.63;1.80;;;;;;;14.82;57.20;100220.28;5973169;23;99108;-76
2022/01/03 01:41:22;;;;;;;5.60;2.20;;;;;;;14.95;57.70;100214.09;5974521;23;97187;-76
2022/01/03 01:43:49;;;;;;;5.40;2.20;;;;;;;14.71;58.36;100211.13;5975675;23;98295;-76
2022/01/03 01:46:18;;;;;;;4.28;1.73;;;;;;;14.84;57.26;100200.59;5973486;23;99234;-75
2022/01/03 01:48:47;;;;;;;4.10;1.83;;;;;;;14.82;57.36;100201.66;5975092;23;98991;-76
2022/01/03 01:51:17;;;;;;;6.30;1.90;;;;;;;14.92;57.39;100189.47;5973651;23;96777;-77
2022/01/03 01:53:47;;;;;;;3.58;1.70;;;;;;;14.67;57.58;100193.66;5974770;23;96984;-76
2022/01/03 01:56:17;;;;;;;3.25;1.42;;;;;;;14.93;57.62;100199.19;5974725;23;98935;-77
2022/01/03 01:59:15;;;;;;;5.70;1.80;;;;;;;14.69;57.94;100191.78;5975275;23;98812;-77
2022/01/03 02:01:47;;;;;;;4.68;1.70;;;;;;;14.27;59.39;100210.25;5968317;23;96906;-76
2022/01/03 02:04:31;;;;;;;5.13;1.45;;;;;;;14.48;59.01;100206.34;5975809;23;96884;-76
2022/01/03 02:07:13;;;;;;;6.18;2.03;;;;;;;14.49;59.24;100205.41;5974743;23;98903;-76
2022/01/03 02:09:43;;;;;;;2.22;1.40;;;;;;;14.60;59.15;100202.09;5975513;23;98856;-76
2022/01/03 02:12:16;;;;;;;4.32;1.42;;;;;;;14.75;58.22;100194.06;5974713;23;96843;-76
2022/01/03 02:14:46;;;;;;;7.20;1.77;;;;;;;14.69;58.42;100213.03;5974977;23;97064;-76
2022/01/03 02:17:13;;;;;;;3.53;1.42;;;;;;;14.31;58.43;100195.81;5975245;23;99115;-76
2022/01/03 02:19:41;;;;;;;2.03;1.30;;;;;;;14.56;58.74;100205.91;5975269;23;96635;-77
2022/01/03 02:22:10;;;;;;;2.83;1.20;;;;;;;13.98;58.91;100196.00;5974695;23;96926;-77
2022/01/03 02:24:37;;;;;;;2.72;1.15;;;;;;;14.41;59.33;100197.03;5974103;23;97004;-77
2022/01/03 02:27:04;;;;;;;7.65;1.40;;;;;;;14.58;58.50;100188.88;5974158;23;98835;-77
2022/01/03 02:29:30;;;;;;;4.43;1.25;;;;;;;14.84;57.63;100184.63;5974843;23;98812;-77
2022/01/03 02:31:57;;;;;;;2.83;1.20;;;;;;;14.77;58.10;100175.31;5973877;23;96984;-77
2022/01/03 02:34:24;;;;;;;2.20;1.00;;;;;;;14.71;58.01;100187.19;5974650;23;96809;-77
2022/01/03 02:36:52;;;;;;;1.85;0.98;;;;;;;14.45;58.36;100173.78;5974158;23;99276;-78
2022/01/03 02:39:18;;;;;;;2.03;0.88;;;;;;;14.66;58.18;100176.00;5973294;23;98708;-78
2022/01/03 02:41:45;;;;;;;2.30;1.30;;;;;;;14.43;58.67;100171.22;5974783;23;96998;-76
2022/01/03 02:44:13;;;;;;;2.35;0.98;;;;;;;14.13;59.01;100170.34;5974917;23;96845;-77
2022/01/03 02:46:40;;;;;;;1.60;0.90;;;;;;;14.28;58.66;100158.81;5972052;23;99513;-77
2022/01/03 02:49:07;;;;;;;2.15;0.70;;;;;;;14.26;58.95;100177.50;5973563;23;99095;-76
2022/01/03 02:51:33;;;;;;;1.30;0.70;;;;;;;14.32;58.75;100165.66;5975533;23;97191;-76
2022/01/03 02:54:01;;;;;;;4.85;0.88;;;;;;;14.49;58.23;100162.88;5975942;23;96995;-76
2022/01/03 02:56:33;;;;;;;1.55;0.70;;;;;;;14.47;58.06;100164.75;5974296;23;101110;-76
2022/01/03 02:58:59;;;;;;;3.55;1.02;;;;;;;14.78;57.18;100158.41;5973699;23;98724;-77
2022/01/03 03:01:26;;;;;;;1.90;0.90;;;;;;;14.52;57.63;100156.50;5973837;23;97139;-76
2022/01/03 03:03:52;;;;;;;3.47;0.68;;;;;;;14.36;58.35;100152.09;5981203;23;96790;-77
2022/01/03 03:06:19;;;;;;;5.05;1.02;;;;;;;14.51;57.18;100142.34;6000646;23;96895;-76
2022/01/03 03:08:45;;;;;;;3.00;0.70;;;;;;;14.59;56.87;100141.88;6002350;23;99679;-76
2022/01/03 03:11:13;;;;;;;2.17;0.60;;;;;;;14.44;56.49;100127.72;5998799;23;97300;-76
2022/01/03 03:13:40;;;;;;;1.65;0.60;;;;;;;14.41;57.08;100127.94;6000901;23;96057;-77
2022/01/03 03:16:07;;;;;;;3.40;0.93;;;;;;;14.38;57.03;100116.59;6003640;23;97773;-77
2022/01/03 03:18:33;;;;;;;1.25;0.50;;;;;;;14.37;57.15;100123.72;6002017;23;98397;-76
2022/01/03 03:21:00;;;;;;;2.08;1.23;;;;;;;14.03;57.29;100116.06;6000206;23;96597;-77
2022/01/03 03:23:27;;;;;;;1.10;0.50;;;;;;;14.02;57.95;100103.72;6003970;23;96245;-76
2022/01/03 03:25:54;;;;;;;3.33;0.70;;;;;;;14.31;56.89;100105.47;6003799;23;98068;-76
2022/01/03 03:28:25;;;;;;;4.30;0.82;;;;;;;14.20;57.76;100113.25;5980130;23;97047;-77
2022/01/03 03:30:52;;;;;;;2.63;0.70;;;;;;;14.40;57.54;100106.75;5979668;23;96605;-76
2022/01/03 03:33:21;;;;;;;2.63;0.52;;;;;;;14.01;57.78;100112.63;5976091;23;97247;-77
2022/01/03 03:35:51;;;;;;;1.50;0.60;;;;;;;14.01;58.22;100115.28;5975156;23;101012;-77
2022/01/03 03:38:18;;;;;;;4.70;0.90;;;;;;;14.28;58.08;100105.66;5976251;23;99095;-77
2022/01/03 03:40:47;;;;;;;3.08;1.10;;;;;;;14.10;58.21;100089.03;5976085;23;96733;-76
2022/01/03 03:43:14;;;;;;;2.67;0.90;;;;;;;14.06;58.73;100095.47;5975647;23;97164;-76
2022/01/03 03:45:42;;;;;;;7.35;0.70;;;;;;;13.93;59.17;100095.34;5975115;23;99615;-77
2022/01/03 03:48:09;;;;;;;2.40;0.63;;;;;;;13.83;59.45;100094.19;5975620;23;98776;-77
2022/01/03 03:50:36;;;;;;;2.45;0.63;;;;;;;13.80;59.91;100075.78;5974384;23;96592;-77
2022/01/03 03:53:04;;;;;;;3.03;0.90;;;;;;;13.68;60.02;100081.81;5975639;23;96791;-76
2022/01/03 03:55:31;;;;;;;1.85;0.68;;;;;;;13.61;60.59;100092.88;5974867;23;99083;-77
2022/01/03 03:57:58;;;;;;;4.35;0.90;;;;;;;13.83;60.15;100082.72;5974841;23;99330;-77
2022/01/03 04:00:25;;;;;;;2.70;0.65;;;;;;;13.63;60.16;100091.00;5976321;23;96775;-76
2022/01/03 04:02:53;;;;;;;2.92;0.80;;;;;;;13.63;60.52;100094.50;5975605;23;96811;-77
2022/01/03 04:05:19;;;;;;;2.00;0.75;;;;;;;13.33;60.92;100099.78;5974713;23;99060;-77
2022/01/03 04:07:46;;;;;;;4.35;0.70;;;;;;;13.28;61.37;100085.06;5975819;23;99324;-77
2022/01/03 04:10:15;;;;;;;3.60;0.80;;;;;;;13.33;61.59;100104.22;5975544;23;96907;-77
2022/01/03 04:12:42;;;;;;;1.70;0.75;;;;;;;13.38;61.93;100099.53;5975127;23;96863;-77
2022/01/03 04:15:09;;;;;;;4.05;0.77;;;;;;;13.26;62.54;100105.53;5974221;23;98903;-76
2022/01/03 04:17:36;;;;;;;10.73;0.88;;;;;;;13.24;62.66;100104.75;5975596;23;99087;-77
2022/01/03 04:20:05;;;;;;;2.85;1.02;;;;;;;13.26;61.95;100122.28;5976073;23;96728;-76
2022/01/03 04:22:32;;;;;;;5.43;0.80;;;;;;;13.55;61.17;100105.56;5974688;23;96816;-76
2022/01/03 04:24:58;;;;;;;2.95;0.73;;;;;;;13.46;61.34;100106.09;5974986;23;98907;-77
2022/01/03 04:27:25;;;;;;;3.72;0.70;;;;;;;13.14;62.63;100122.97;5975699;23;100880;-77
2022/01/03 04:29:52;;;;;;;0.98;0.55;;;;;;;13.20;61.26;100119.13;5975849;23;96628;-77
2022/01/03 04:32:18;;;;;;;3.80;0.52;;;;;;;13.48;61.30;100124.59;5994832;23;96836;-76
2022/01/03 04:34:45;;;;;;;1.15;0.50;;;;;;;13.24;61.96;100126.84;5995429;23;97905;-77
2022/01/03 04:37:14;;;;;;;1.48;0.50;;;;;;;12.74;63.16;100138.38;5986566;23;97946;-77
2022/01/03 04:39:41;;;;;;;2.03;0.25;;;;;;;12.81;62.47;100138.91;5974629;23;96644;-76
2022/01/03 04:42:07;;;;;;;2.05;0.38;;;;;;;12.84;61.25;100133.47;5975176;23;96813;-76
2022/01/03 04:44:34;;;;;;;1.40;0.30;;;;;;;12.73;60.77;100146.44;5974425;23;99644;-77
2022/01/03 04:47:00;;;;;;;0.40;0.10;;;;;;;12.84;59.99;100148.50;5974334;23;99382;-77
2022/01/03 04:49:27;;;;;;;0.38;0.10;;;;;;;13.08;59.04;100163.06;5975323;23;97025;-77
2022/01/03 04:51:53;;;;;;;3.97;0.10;;;;;;;12.73;58.49;100151.75;5974517;23;97069;-77
2022/01/03 04:54:21;;;;;;;0.75;0.20;;;;;;;12.62;60.06;100181.47;5974095;23;98096;-76
2022/01/03 04:56:48;;;;;;;0.10;0.10;;;;;;;12.36;59.75;100180.16;5975275;23;97658;-76
2022/01/03 04:59:15;;;;;;;4.70;0.20;;;;;;;12.20;60.06;100160.72;5974928;23;96712;-76
2022/01/03 05:01:41;;;;;;;1.10;0.10;;;;;;;12.44;59.43;100185.06;5974915;23;96961;-77
2022/01/03 05:04:07;;;;;;;1.23;0.20;;;;;;;12.64;58.12;100179.59;5974139;23;98835;-77
2022/01/03 05:06:34;;;;;;;0.73;0.10;;;;;;;12.11;58.90;100178.84;5974590;23;99385;-77
2022/01/03 05:09:00;;;;;;;0.45;0.10;;;;;;;12.42;58.49;100184.28;5975352;23;96660;-77
2022/01/03 05:11:28;;;;;;;0.30;0.20;;;;;;;12.44;57.98;100176.25;5974922;23;96957;-77
2022/01/03 05:13:54;;;;;;;2.60;0.20;;;;;;;12.52;59.01;100197.94;5974597;23;99338;-76
2022/01/03 05:16:21;;;;;;;0.43;0.22;;;;;;;12.46;57.70;100195.59;5975539;23;98954;-75
2022/01/03 05:18:47;;;;;;;0.35;0.10;;;;;;;12.16;59.31;100206.81;5974999;23;96823;-77
2022/01/03 05:21:15;;;;;;;0.22;0.15;;;;;;;11.73;59.74;100205.41;5975755;23;97319;-76
2022/01/03 05:23:42;;;;;;;1.98;0.30;;;;;;;11.92;59.81;100216.84;5974434;23;100487;-77
2022/01/03 05:26:08;;;;;;;1.73;0.10;;;;;;;11.78;59.38;100229.91;5973768;23;98861;-75
2022/01/03 05:28:36;;;;;;;1.27;0.20;;;;;;;11.75;60.34;100224.75;5975015;23;97050;-77
2022/01/03 05:31:03;;;;;;;3.08;0.40;;;;;;;12.24;59.47;100230.28;5974919;23;97058;-76
2022/01/03 05:33:29;;;;;;;0.45;0.22;;;;;;;12.54;58.66;100238.44;5974323;23;99114;-76
2022/01/03 05:35:55;;;;;;;0.28;0.22;;;;;;;12.60;57.44;100249.59;5974940;23;98179;-76
2022/01/03 05:38:21;;;;;;;2.72;0.47;;;;;;;12.48;58.37;100260.81;5975375;23;96663;-76
2022/01/03 05:40:48;;;;;;;1.92;0.50;;;;;;;12.77;58.53;100262.84;5975394;23;97066;-76
2022/01/03 05:43:14;;;;;;;1.63;0.40;;;;;;;12.97;57.38;100275.06;5974792;23;101310;-76
2022/01/03 05:45:42;;;;;;;2.92;0.60;;;;;;;12.66;58.81;100269.63;5975079;23;99034;-75
2022/01/03 05:48:08;;;;;;;1.23;0.38;;;;;;;12.92;59.29;100273.59;5975691;23;97066;-76
2022/01/03 05:50:34;;;;;;;1.60;0.50;;;;;;;12.87;60.25;100279.09;5975312;23;96852;-77
2022/01/03 05:53:01;;;;;;;1.33;0.43;;;;;;;12.93;59.54;100275.31;5974674;23;99379;-76
2022/01/03 05:55:27;;;;;;;1.75;0.40;;;;;;;12.74;60.23;100284.19;5973608;23;101076;-76
2022/01/03 05:57:54;;;;;;;0.40;0.30;;;;;;;12.32;62.58;100283.72;5975868;23;96683;-77
2022/01/03 06:00:22;;;;;;;0.80;0.50;;;;;;;12.42;61.49;100282.31;5974597;23;96763;-76
2022/01/03 06:02:54;;;;;;;0.93;0.40;;;;;;;12.38;62.97;100281.63;5973833;23;99260;-76
2022/01/03 06:05:38;;;;;;;2.92;0.50;;;;;;;12.67;61.74;100301.34;5973570;23;98789;-77
2022/01/03 06:08:06;;;;;;;2.05;0.50;;;;;;;12.48;61.89;100297.06;5975331;23;96610;-76
2022/01/03 06:10:32;;;;;;;3.03;0.52;;;;;;;12.36;62.29;100312.63;5973833;23;96983;-76
2022/01/03 06:12:58;;;;;;;5.55;0.63;;;;;;;12.43;63.30;100301.72;5974495;23;99327;-77
2022/01/03 06:15:25;;;;;;;6.75;1.15;;;;;;;12.95;61.95;100315.84;5974235;23;99256;-77
2022/01/03 06:17:53;;;;;;;6.40;0.75;;;;;;;12.31;63.55;100316.47;5973635;23;96795;-77
2022/01/03 06:20:20;;;;;;;4.75;0.52;;;;;;;12.78;62.35;100317.59;5973757;23;96819;-76
2022/01/03 06:22:46;;;;;;;1.05;0.50;;;;;;;12.33;63.51;100322.53;5974516;23;99311;-76
2022/01/03 06:25:13;;;;;;;4.40;0.73;;;;;;;12.97;61.92;100325.44;5974473;23;99273;-77
2022/01/03 06:27:40;;;;;;;9.32;0.90;;;;;;;12.93;60.65;100337.13;5973884;23;97272;-77
2022/01/03 06:30:08;;;;;;;3.53;0.68;;;;;;;13.21;60.51;100335.72;5974566;23;96777;-77
2022/01/03 06:32:36;;;;;;;8.52;0.63;;;;;;;12.88;61.27;100340.97;5974342;23;99262;-76
2022/01/03 06:35:05;;;;;;;7.35;1.05;;;;;;;13.07;60.99;100329.31;5973392;23;99194;-77
2022/01/03 06:37:31;;;;;;;11.50;2.17;;;;;;;12.49;61.75;100334.09;5975344;23;96778;-76
2022/01/03 06:39:58;;;;;;;8.43;0.90;;;;;;;13.02;61.65;100344.63;5974563;23;96704;-77
2022/01/03 06:42:24;;;;;;;10.57;0.88;;;;;;;12.78;61.81;100357.34;5973844;23;99091;-76
2022/01/03 06:44:50;;;;;;;9.00;0.80;;;;;;;13.16;60.69;100355.41;5972264;23;97778;-76
2022/01/03 06:47:17;;;;;;;7.90;1.10;;;;;;;12.95;60.18;100360.91;5975611;23;96827;-77
2022/01/03 06:49:44;;;;;;;4.95;0.73;;;;;;;13.14;59.95;100354.63;5974445;23;96864;-77
2022/01/03 06:52:12;;;;;;;9.95;0.95;;;;;;;13.24;60.46;100364.75;5974173;23;99748;-77
2022/01/03 06:54:38;;;;;;;6.22;0.75;;;;;;;13.33;59.44;100364.25;5973610;23;97749;-76
2022/01/03 06:57:05;;;;;;;6.45;1.00;;;;;;;13.32;58.94;100367.88;5974764;23;96595;-77
2022/01/03 06:59:31;;;;;;;6.30;1.20;;;;;;;13.27;59.35;100367.25;5975205;23;97174;-77
2022/01/03 07:01:57;;;;;;;12.85;1.77;;;;;;;13.39;59.23;100378.06;5973144;23;98252;-76
2022/01/03 07:04:24;;;;;;;8.07;1.02;;;;;;;13.36;57.56;100375.59;5973552;23;98117;-78
2022/01/03 07:06:50;;;;;;;7.38;1.13;;;;;;;13.52;58.83;100386.25;5973187;23;97078;-77
2022/01/03 07:09:18;;;;;;;6.00;0.90;;;;;;;13.82;57.64;100389.06;5975328;23;96794;-78
2022/01/03 07:11:44;;;;;;;8.45;1.25;;;;;;;13.77;57.70;100389.31;5974391;23;99403;-77
2022/01/03 07:19:42;;;;;;;13.88;1.48;;;;;;;14.07;56.63;100405.34;5973583;23;97357;-78
2022/01/03 07:22:10;;;;;;;12.13;1.38;;;;;;;13.88;57.14;100402.84;5974403;23;99112;-77
2022/01/03 07:24:39;;;;;;;7.15;1.40;;;;;;;13.72;57.32;100404.63;5974489;23;98955;-78
2022/01/03 07:27:08;;;;;;;5.18;1.00;;;;;;;13.95;57.29;100409.56;5974944;23;96765;-77
2022/01/03 07:29:35;;;;;;;9.88;1.55;;;;;;;13.86;57.61;100411.84;5972697;23;96918;-78
2022/01/03 07:32:01;;;;;;;10.85;1.25;;;;;;;13.31;58.55;100405.97;5971814;23;101227;-76
2022/01/03 07:34:28;;;;;;;12.88;2.08;;;;;;;13.69;57.94;100402.13;5972005;23;101339;-78
2022/01/03 07:36:55;;;;;;;13.35;1.40;;;;;;;13.93;57.13;100407.91;5973861;23;96719;-77
2022/01/03 07:39:21;;;;;;;6.20;1.27;;;;;;;13.64;56.54;100406.84;5971969;23;97324;-77
2022/01/03 07:41:49;;;;;;;14.05;2.25;;;;;;;13.70;56.97;100417.13;5971077;23;99505;-77
2022/01/03 07:44:16;;;;;;;9.93;1.27;;;;;;;13.12;58.04;100425.50;5972372;23;98250;-76
2022/01/03 07:46:44;;;;;;;10.43;1.52;;;;;;;12.81;59.86;100424.41;5971049;23;97108;-78
2022/01/03 07:49:11;;;;;;;10.57;1.77;;;;;;;13.39;58.21;100422.34;5972289;23;97073;-76
2022/01/03 07:51:37;;;;;;;11.95;1.83;;;;;;;13.49;57.13;100423.56;5970426;23;99291;-77
2022/01/03 07:54:04;;;;;;;8.73;1.10;;;;;;;13.40;58.80;100435.53;5972049;23;100852;-78
2022/01/03 07:56:32;;;;;;;8.40;1.73;;;;;;;13.52;58.21;100428.75;5971200;23;97421;-78
2022/01/03 07:59:00;;;;;;;10.30;1.67;;;;;;;13.61;58.12;100433.53;5973610;23;96807;-77
2022/01/03 08:01:29;;;;;;;11.48;1.77;;;;;;;13.77;57.02;100433.59;5972465;23;98935;-78
2022/01/03 08:04:12;;;;;;;10.73;1.45;;;;;;;13.87;56.55;100435.66;5973195;23;98005;-78
2022/01/03 08:09:54;;;;;;;11.45;1.65;;;;;;;13.95;56.98;100438.78;5973547;23;97201;-78
2022/01/03 08:12:22;;;;;;;12.13;1.70;;;;;;;13.43;59.28;100447.78;5972064;23;98988;-78
2022/01/03 08:14:54;;;;;;;10.02;1.20;;;;;;;13.98;57.34;100446.56;5972069;23;99265;-77
2022/01/03 08:17:21;;;;;;;8.45;1.50;;;;;;;13.89;57.83;100449.72;5973521;23;96736;-76
2022/01/03 08:19:47;;;;;;;8.32;1.30;;;;;;;14.14;56.96;100451.91;5974020;23;97087;-77
2022/01/03 08:22:14;;;;;;;6.45;1.10;;;;;;;14.17;57.34;100456.22;5970753;23;98968;-77
2022/01/03 08:24:40;;;;;;;8.13;1.38;;;;;;;14.08;56.95;100448.72;5971751;23;97723;-76
2022/01/03 08:27:07;;;;;;;10.68;1.83;;;;;;;13.86;57.97;100447.22;5971136;23;97162;-75
2022/01/03 08:29:34;;;;;;;7.72;1.38;;;;;;;13.64;57.97;100445.81;5973485;23;96986;-77
2022/01/03 08:32:04;;;;;;;14.98;2.17;;;;;;;13.79;58.44;100448.50;5972750;23;99389;-77
2022/01/03 08:34:31;;;;;;;13.98;1.63;;;;;;;14.13;57.05;100446.66;5972365;23;99074;-77
2022/01/03 08:37:00;;;;;;;8.60;1.25;;;;;;;13.91;57.51;100447.00;5974271;23;97089;-77
2022/01/03 08:39:26;;;;;;;23.80;3.03;;;;;;;13.90;57.39;100451.44;5972827;23;97177;-77
2022/01/03 08:41:53;;;;;;;12.73;2.13;;;;;;;13.96;56.85;100451.13;5973101;23;99239;-77
2022/01/03 08:44:26;;;;;;;12.38;1.70;;;;;;;14.08;56.54;100452.25;5978389;23;97754;-77
2022/01/03 08:47:06;;;;;;;;;;;;;;;;;;;;;
2022/01/03 08:49:34;;;;;;;5.63;1.35;;;;;;;14.26;56.53;100458.34;5972303;23;117964;-77
2022/01/03 08:52:01;;;;;;;12.95;2.05;;;;;;;14.47;55.50;100462.50;5970652;23;98839;-77
2022/01/03 08:54:31;;;;;;;10.68;1.80;;;;;;;14.44;55.22;100457.34;5971747;23;99520;-78
2022/01/03 09:04:01;;;;;;;;;;;;;;;;;;;;;
2022/01/03 09:16:53;;;;;;;20.70;2.28;;;;;;;14.28;54.48;100459.13;5803853;23;96969;-78
2022/01/03 09:19:48;;;;;;;15.55;2.50;;;;;;;14.33;53.71;100449.09;5919822;23;98897;-78
2022/01/03 09:22:38;;;;;;;;;;;;;;;;;;;;;
2022/01/03 09:44:01;;;;;;;12.25;1.70;;;;;;;14.21;54.29;100460.41;5891643;23;97466;-75
2022/01/03 09:46:32;;;;;;;16.45;2.10;;;;;;;14.47;53.25;100457.19;5972834;23;97215;-74
2022/01/03 09:48:59;;;;;;;12.30;2.33;;;;;;;14.53;53.21;100462.16;5975917;23;96945;-74
2022/01/03 09:51:28;;;;;;;14.90;1.90;;;;;;;14.91;52.35;100467.09;5975946;23;99052;-74
2022/01/03 09:54:00;;;;;;;12.07;1.73;;;;;;;14.77;51.03;100465.22;5975005;23;98202;-75
2022/01/03 09:56:30;;;;;;;10.15;1.58;;;;;;;14.75;51.96;100469.78;5975351;23;97004;-75
2022/01/03 09:59:00;;;;;;;19.83;1.98;;;;;;;14.54;52.23;100469.19;5975166;23;97099;-75
2022/01/03 10:01:27;;;;;;;9.25;1.73;;;;;;;14.90;51.67;100466.22;5974360;23;98862;-74
2022/01/03 10:03:54;;;;;;;10.32;1.60;;;;;;;14.51;53.18;100469.34;5973972;23;99417;-74
2022/01/03 10:06:21;;;;;;;7.55;1.90;;;;;;;14.04;54.00;100469.31;5975202;23;97338;-75
2022/01/03 10:08:48;;;;;;;10.48;1.58;;;;;;;14.41;52.96;100460.19;5974649;23;97217;-73
2022/01/03 10:11:15;;;;;;;17.23;1.95;;;;;;;14.40;53.12;100477.09;5974299;23;99011;-74
2022/01/03 10:13:42;;;;;;;16.02;1.85;;;;;;;14.60;52.68;100466.19;5974471;23;98181;-74
2022/01/03 10:16:10;;;;;;;15.07;3.00;;;;;;;14.11;54.07;100461.88;5973894;23;97078;-74
2022/01/03 10:18:37;;;;;;;13.68;1.92;;;;;;;14.67;53.11;100462.25;5974689;23;97131;-74
2022/01/03 10:21:06;;;;;;;16.70;3.38;;;;;;;14.82;52.34;100467.63;5974522;23;98847;-73
2022/01/03 10:23:33;;;;;;;14.18;2.53;;;;;;;14.84;52.34;100463.94;5975956;23;98917;-74
2022/01/03 10:26:17;;;;;;;11.10;2.20;;;;;;;14.70;52.62;100470.03;5974789;23;96888;-72
2022/01/03 10:28:44;;;;;;;10.30;2.20;;;;;;;14.89;52.45;100461.03;5976235;23;96812;-73
2022/01/03 10:31:16;;;;;;;16.65;2.55;;;;;;;15.47;51.19;100451.31;5976175;23;97858;-74
2022/01/03 10:33:43;;;;;;;15.93;2.90;;;;;;;15.04;51.58;100457.44;5973625;23;98976;-73
2022/01/03 10:36:26;;;;;;;14.63;2.30;;;;;;;15.42;50.83;100448.09;5973374;23;96659;-74
2022/01/03 10:38:53;;;;;;;14.13;2.33;;;;;;;15.90;49.28;100449.56;5973846;23;97399;-73
2022/01/03 10:41:31;;;;;;;14.77;2.45;;;;;;;16.18;48.83;100453.16;5979936;23;99922;-76
2022/01/03 10:43:59;;;;;;;21.95;3.60;;;;;;;16.18;48.57;100462.03;5977258;23;96613;-74
2022/01/03 10:46:30;;;;;;;20.17;2.95;;;;;;;15.59;49.64;100459.53;5973888;23;96934;-75
2022/01/03 10:49:09;;;;;;;9.25;2.33;;;;;;;15.96;49.32;100456.31;5974837;23;96817;-74
2022/01/03 10:51:36;;;;;;;18.67;2.92;;;;;;;16.11;48.73;100451.84;5974373;23;98996;-75
2022/01/03 10:54:02;;;;;;;19.77;2.95;;;;;;;16.00;48.71;100449.88;5974450;23;99368;-74
2022/01/03 10:56:32;;;;;;;19.75;3.45;;;;;;;16.20;48.50;100457.47;5974177;23;96688;-74
2022/01/03 10:59:01;;;;;;;19.33;2.58;;;;;;;16.15;48.48;100448.03;5975638;23;97165;-75
2022/01/03 11:01:30;;;;;;;16.80;3.28;;;;;;;16.07;48.48;100453.00;5973031;23;97920;-73
2022/01/03 11:04:00;;;;;;;16.15;3.15;;;;;;;16.14;48.17;100451.66;5973344;23;98025;-74
2022/01/03 11:06:48;;;;;;;19.90;3.35;;;;;;;15.71;48.41;100448.13;5974205;23;97007;-75
2022/01/03 11:12:03;;;;;;;23.48;3.28;;;;;;;15.20;49.58;100449.44;5924760;23;97638;-74
2022/01/03 11:14:32;;;;;;;15.82;2.70;;;;;;;15.31;50.07;100439.84;5972728;23;99160;-74
2022/01/03 11:17:01;;;;;;;18.15;2.83;;;;;;;15.54;49.64;100441.19;5973351;23;96668;-76
2022/01/03 11:19:38;;;;;;;19.40;3.72;;;;;;;15.35;49.55;100430.75;5973443;23;96852;-74
2022/01/03 11:22:04;;;;;;;16.45;3.10;;;;;;;15.25;49.56;100434.91;5980169;23;99252;-76
2022/01/03 11:24:31;;;;;;;16.15;2.90;;;;;;;15.35;49.40;100436.09;5992505;23;99304;-75
2022/01/03 11:26:58;;;;;;;20.05;2.70;;;;;;;15.34;48.73;100431.72;5993087;23;96612;-74
2022/01/03 11:29:28;;;;;;;25.60;3.55;;;;;;;15.32;49.22;100428.25;5994926;23;96685;-74
2022/01/03 11:31:55;;;;;;;23.17;3.30;;;;;;;15.02;49.63;100427.44;5992346;23;101539;-73
2022/01/03 11:34:25;;;;;;;13.15;2.55;;;;;;;15.67;48.52;100420.84;5987519;23;97819;-74
2022/01/03 11:36:52;;;;;;;20.58;3.90;;;;;;;15.53;48.47;100407.50;5976060;23;97559;-73
2022/01/03 11:39:21;;;;;;;15.52;2.60;;;;;;;15.39;48.63;100410.97;5976217;23;97082;-72
2022/01/03 11:41:50;;;;;;;18.05;3.65;;;;;;;15.69;48.27;100410.94;5980012;23;99886;-73
2022/01/03 11:44:17;;;;;;;17.67;3.17;;;;;;;15.92;47.99;100413.03;5981969;23;97637;-73
2022/01/03 11:46:50;;;;;;;20.50;3.70;;;;;;;15.66;48.10;100410.28;5978741;23;97402;-72
2022/01/03 11:49:17;;;;;;;16.02;3.33;;;;;;;15.80;47.42;100395.16;5976880;23;97009;-74
2022/01/03 11:51:45;;;;;;;18.48;3.35;;;;;;;16.17;46.72;100396.34;5974595;23;100354;-75
2022/01/03 11:54:14;;;;;;;14.55;2.60;;;;;;;16.03;46.86;100396.34;5975413;23;99067;-74
2022/01/03 11:56:44;;;;;;;11.93;2.88;;;;;;;15.80;47.02;100388.97;5975134;23;97115;-75
2022/01/03 11:59:23;;;;;;;17.27;2.80;;;;;;;15.49;47.63;100384.66;5975132;23;97648;-75
2022/01/03 12:04:38;;;;;;;17.98;3.70;;;;;;;15.36;48.76;100389.03;5974997;23;96710;-74
2022/01/03 12:07:09;;;;;;;18.88;3.42;;;;;;;15.52;48.26;100380.03;5976435;23;97083;-74
2022/01/03 12:09:43;;;;;;;15.93;3.60;;;;;;;15.05;48.17;100387.31;5977117;23;97327;-74
2022/01/03 12:12:10;;;;;;;23.55;3.42;;;;;;;15.33;48.26;100384.72;5976446;23;99404;-74
2022/01/03 12:14:42;;;;;;;21.67;3.72;;;;;;;15.46;47.80;100388.34;5974049;23;99229;-74
2022/01/03 12:17:10;;;;;;;20.95;3.47;;;;;;;15.45;47.68;100383.97;5975600;23;96624;-74
2022/01/03 12:19:39;;;;;;;22.77;4.53;;;;;;;15.32;48.10;100380.34;5973109;23;97357;-75
2022/01/03 12:22:12;;;;;;;21.08;4.10;;;;;;;15.32;48.41;100379.50;5972401;23;96948;-74
2022/01/03 12:24:46;;;;;;;18.80;3.17;;;;;;;15.73;47.36;100388.50;5974882;23;98940;-75
2022/01/03 12:27:40;;;;;;;20.13;3.42;;;;;;;15.20;47.49;100377.56;5975366;23;96745;-74